sensor_id;sensor_type;location;lat;lon;timestamp;P1;durP1;ratioP1;P2;durP2;ratioP2
21148;SDS011;10732;51.472;6.466;2022-09-09T00:01:00;3.75;;;1.20;;
21148;SDS011;10732;51.472;6.466;2022-09-09T00:03:53;4.85;;;1.48;;
21148;SDS011;10732;51.472;6.466;2022-09-09T00:06:43;2.50;;;1.30;;
21148;SDS011;10732;51.472;6.466;2022-09-09T00:09:19;3.33;;;1.50;;
21148;SDS011;10732;51.472;6.466;2022-09-09T00:11:54;4.80;;;1.48;;
21148;SDS011;10732;51.472;6.466;2022-09-09T00:14:37;4.95;;;1.80;;
21148;SDS011;10732;51.472;6.466;2022-09-09T00:17:18;2.10;;;1.65;;
21148;SDS011;10732;51.472;6.466;2022-09-09T00:22:36;2.28;;;1.50;;
21148;SDS011;10732;51.472;6.466;2022-09-09T00:25:11;4.43;;;1.60;;
21148;SDS011;10732;51.472;6.466;2022-09-09T00:27:44;3.75;;;1.55;;
21148;SDS011;10732;51.472;6.466;2022-09-09T00:30:25;3.22;;;1.65;;
21148;SDS011;10732;51.472;6.466;2022-09-09T00:32:54;4.63;;;1.70;;
21148;SDS011;10732;51.472;6.466;2022-09-09T00:35:29;2.47;;;1.55;;
21148;SDS011;10732;51.472;6.466;2022-09-09T00:37:57;4.68;;;1.60;;
21148;SDS011;10732;51.472;6.466;2022-09-09T00:40:35;2.33;;;1.50;;
21148;SDS011;10732;51.472;6.466;2022-09-09T00:43:29;2.38;;;1.58;;
21148;SDS011;10732;51.472;6.466;2022-09-09T00:48:28;2.97;;;1.60;;
21148;SDS011;10732;51.472;6.466;2022-09-09T00:51:06;2.72;;;1.30;;
21148;SDS011;10732;51.472;6.466;2022-09-09T00:56:27;1.70;;;1.30;;
21148;SDS011;10732;51.472;6.466;2022-09-09T01:01:55;3.70;;;1.42;;
21148;SDS011;10732;51.472;6.466;2022-09-09T01:04:27;3.10;;;1.40;;
21148;SDS011;10732;51.472;6.466;2022-09-09T01:07:03;1.92;;;1.50;;
21148;SDS011;10732;51.472;6.466;2022-09-09T01:12:16;4.47;;;1.85;;
21148;SDS011;10732;51.472;6.466;2022-09-09T01:14:50;3.05;;;1.90;;
21148;SDS011;10732;51.472;6.466;2022-09-09T01:17:22;2.97;;;2.00;;
21148;SDS011;10732;51.472;6.466;2022-09-09T01:22:56;2.88;;;2.17;;
21148;SDS011;10732;51.472;6.466;2022-09-09T01:28:35;3.85;;;1.85;;
21148;SDS011;10732;51.472;6.466;2022-09-09T01:31:03;2.40;;;1.83;;
21148;SDS011;10732;51.472;6.466;2022-09-09T01:33:30;4.57;;;2.10;;
21148;SDS011;10732;51.472;6.466;2022-09-09T01:38:25;5.47;;;2.45;;
21148;SDS011;10732;51.472;6.466;2022-09-09T01:40:52;6.20;;;3.15;;
21148;SDS011;10732;51.472;6.466;2022-09-09T01:43:19;5.40;;;2.83;;
21148;SDS011;10732;51.472;6.466;2022-09-09T01:45:45;4.57;;;2.65;;
21148;SDS011;10732;51.472;6.466;2022-09-09T01:48:14;4.25;;;3.05;;
21148;SDS011;10732;51.472;6.466;2022-09-09T01:50:40;5.18;;;3.92;;
21148;SDS011;10732;51.472;6.466;2022-09-09T01:53:06;8.07;;;5.70;;
21148;SDS011;10732;51.472;6.466;2022-09-09T01:55:33;8.52;;;6.80;;
21148;SDS011;10732;51.472;6.466;2022-09-09T02:00:54;7.78;;;6.50;;
21148;SDS011;10732;51.472;6.466;2022-09-09T02:03:28;7.88;;;7.18;;
21148;SDS011;10732;51.472;6.466;2022-09-09T02:06:00;7.53;;;6.78;;
21148;SDS011;10732;51.472;6.466;2022-09-09T02:08:48;6.97;;;6.03;;
21148;SDS011;10732;51.472;6.466;2022-09-09T02:11:16;6.78;;;6.18;;
21148;SDS011;10732;51.472;6.466;2022-09-09T02:13:43;7.90;;;5.68;;
21148;SDS011;10732;51.472;6.466;2022-09-09T02:16:12;7.75;;;5.75;;
21148;SDS011;10732;51.472;6.466;2022-09-09T02:18:40;7.93;;;6.03;;
21148;SDS011;10732;51.472;6.466;2022-09-09T02:21:11;6.38;;;5.60;;
21148;SDS011;10732;51.472;6.466;2022-09-09T02:23:38;7.97;;;5.93;;
21148;SDS011;10732;51.472;6.466;2022-09-09T02:26:06;6.93;;;5.82;;
21148;SDS011;10732;51.472;6.466;2022-09-09T02:28:35;6.55;;;5.78;;
21148;SDS011;10732;51.472;6.466;2022-09-09T02:31:02;8.98;;;5.65;;
21148;SDS011;10732;51.472;6.466;2022-09-09T02:33:30;8.30;;;5.40;;
21148;SDS011;10732;51.472;6.466;2022-09-09T02:36:02;6.35;;;5.32;;
21148;SDS011;10732;51.472;6.466;2022-09-09T02:38:32;5.68;;;4.40;;
21148;SDS011;10732;51.472;6.466;2022-09-09T02:41:02;6.85;;;3.88;;
21148;SDS011;10732;51.472;6.466;2022-09-09T02:43:32;7.00;;;3.75;;
21148;SDS011;10732;51.472;6.466;2022-09-09T02:48:31;6.38;;;3.00;;
21148;SDS011;10732;51.472;6.466;2022-09-09T02:51:35;5.22;;;2.58;;
21148;SDS011;10732;51.472;6.466;2022-09-09T02:56:56;2.70;;;2.22;;
21148;SDS011;10732;51.472;6.466;2022-09-09T02:59:31;8.77;;;2.53;;
21148;SDS011;10732;51.472;6.466;2022-09-09T03:01:57;7.07;;;2.30;;
21148;SDS011;10732;51.472;6.466;2022-09-09T03:04:22;6.10;;;2.33;;
21148;SDS011;10732;51.472;6.466;2022-09-09T03:06:49;6.07;;;2.38;;
21148;SDS011;10732;51.472;6.466;2022-09-09T03:09:14;5.75;;;2.15;;
21148;SDS011;10732;51.472;6.466;2022-09-09T03:11:40;5.70;;;2.53;;
21148;SDS011;10732;51.472;6.466;2022-09-09T03:14:06;4.80;;;1.90;;
21148;SDS011;10732;51.472;6.466;2022-09-09T03:16:31;9.80;;;2.80;;
21148;SDS011;10732;51.472;6.466;2022-09-09T03:18:59;5.30;;;2.50;;
21148;SDS011;10732;51.472;6.466;2022-09-09T03:21:25;7.72;;;2.58;;
21148;SDS011;10732;51.472;6.466;2022-09-09T03:23:51;7.75;;;2.55;;
21148;SDS011;10732;51.472;6.466;2022-09-09T03:26:16;5.38;;;2.50;;
21148;SDS011;10732;51.472;6.466;2022-09-09T03:28:42;7.43;;;2.50;;
21148;SDS011;10732;51.472;6.466;2022-09-09T03:31:09;10.30;;;2.70;;
21148;SDS011;10732;51.472;6.466;2022-09-09T03:33:38;7.10;;;2.30;;
21148;SDS011;10732;51.472;6.466;2022-09-09T03:36:06;7.47;;;2.15;;
21148;SDS011;10732;51.472;6.466;2022-09-09T03:38:32;8.02;;;2.55;;
21148;SDS011;10732;51.472;6.466;2022-09-09T03:40:58;6.00;;;2.50;;
21148;SDS011;10732;51.472;6.466;2022-09-09T03:43:25;8.30;;;2.80;;
21148;SDS011;10732;51.472;6.466;2022-09-09T03:45:51;6.45;;;2.63;;
21148;SDS011;10732;51.472;6.466;2022-09-09T03:48:17;8.10;;;2.47;;
21148;SDS011;10732;51.472;6.466;2022-09-09T03:50:44;6.50;;;2.65;;
21148;SDS011;10732;51.472;6.466;2022-09-09T03:53:14;5.55;;;2.55;;
21148;SDS011;10732;51.472;6.466;2022-09-09T03:55:49;7.95;;;2.85;;
21148;SDS011;10732;51.472;6.466;2022-09-09T03:58:17;7.70;;;2.95;;
21148;SDS011;10732;51.472;6.466;2022-09-09T04:00:44;9.07;;;2.83;;
21148;SDS011;10732;51.472;6.466;2022-09-09T04:03:24;8.93;;;3.05;;
21148;SDS011;10732;51.472;6.466;2022-09-09T04:05:54;10.05;;;3.17;;
21148;SDS011;10732;51.472;6.466;2022-09-09T04:08:21;7.28;;;2.72;;
21148;SDS011;10732;51.472;6.466;2022-09-09T04:10:50;6.18;;;2.58;;
21148;SDS011;10732;51.472;6.466;2022-09-09T04:13:16;6.65;;;2.72;;
21148;SDS011;10732;51.472;6.466;2022-09-09T04:15:43;5.10;;;2.65;;
21148;SDS011;10732;51.472;6.466;2022-09-09T04:18:14;7.65;;;2.53;;
21148;SDS011;10732;51.472;6.466;2022-09-09T04:20:40;5.93;;;2.85;;
21148;SDS011;10732;51.472;6.466;2022-09-09T04:23:08;5.43;;;2.53;;
21148;SDS011;10732;51.472;6.466;2022-09-09T04:25:33;5.68;;;2.90;;
21148;SDS011;10732;51.472;6.466;2022-09-09T04:27:59;6.75;;;2.83;;
21148;SDS011;10732;51.472;6.466;2022-09-09T04:30:25;7.50;;;2.63;;
21148;SDS011;10732;51.472;6.466;2022-09-09T04:32:52;6.10;;;2.97;;
21148;SDS011;10732;51.472;6.466;2022-09-09T04:35:18;8.18;;;2.55;;
21148;SDS011;10732;51.472;6.466;2022-09-09T04:37:45;5.57;;;2.75;;
21148;SDS011;10732;51.472;6.466;2022-09-09T04:40:10;6.60;;;2.65;;
21148;SDS011;10732;51.472;6.466;2022-09-09T04:42:37;10.18;;;3.65;;
21148;SDS011;10732;51.472;6.466;2022-09-09T04:45:04;6.82;;;2.95;;
21148;SDS011;10732;51.472;6.466;2022-09-09T04:47:31;7.40;;;3.17;;
21148;SDS011;10732;51.472;6.466;2022-09-09T04:49:57;5.00;;;2.67;;
21148;SDS011;10732;51.472;6.466;2022-09-09T04:52:23;8.32;;;3.08;;
21148;SDS011;10732;51.472;6.466;2022-09-09T04:54:48;6.65;;;3.17;;
21148;SDS011;10732;51.472;6.466;2022-09-09T04:57:14;8.32;;;3.00;;
21148;SDS011;10732;51.472;6.466;2022-09-09T04:59:40;9.07;;;3.13;;
21148;SDS011;10732;51.472;6.466;2022-09-09T05:02:05;8.73;;;3.28;;
21148;SDS011;10732;51.472;6.466;2022-09-09T05:04:31;7.75;;;3.10;;
21148;SDS011;10732;51.472;6.466;2022-09-09T05:06:58;9.18;;;2.92;;
21148;SDS011;10732;51.472;6.466;2022-09-09T05:09:23;9.68;;;3.30;;
21148;SDS011;10732;51.472;6.466;2022-09-09T05:11:49;9.80;;;3.35;;
21148;SDS011;10732;51.472;6.466;2022-09-09T05:14:15;8.10;;;3.00;;
21148;SDS011;10732;51.472;6.466;2022-09-09T05:16:41;8.35;;;3.28;;
21148;SDS011;10732;51.472;6.466;2022-09-09T05:19:07;9.30;;;3.65;;
21148;SDS011;10732;51.472;6.466;2022-09-09T05:21:33;7.18;;;3.42;;
21148;SDS011;10732;51.472;6.466;2022-09-09T05:23:59;6.57;;;2.90;;
21148;SDS011;10732;51.472;6.466;2022-09-09T05:26:28;10.02;;;3.60;;
21148;SDS011;10732;51.472;6.466;2022-09-09T05:28:54;7.97;;;3.00;;
21148;SDS011;10732;51.472;6.466;2022-09-09T05:31:20;7.18;;;2.83;;
21148;SDS011;10732;51.472;6.466;2022-09-09T05:33:46;5.43;;;3.00;;
21148;SDS011;10732;51.472;6.466;2022-09-09T05:36:15;7.35;;;2.97;;
21148;SDS011;10732;51.472;6.466;2022-09-09T05:38:42;8.85;;;3.38;;
21148;SDS011;10732;51.472;6.466;2022-09-09T05:41:08;8.95;;;3.45;;
21148;SDS011;10732;51.472;6.466;2022-09-09T05:43:36;9.82;;;3.70;;
21148;SDS011;10732;51.472;6.466;2022-09-09T05:48:29;5.65;;;2.40;;
21148;SDS011;10732;51.472;6.466;2022-09-09T05:50:55;12.68;;;2.85;;
21148;SDS011;10732;51.472;6.466;2022-09-09T05:53:21;8.75;;;2.78;;
21148;SDS011;10732;51.472;6.466;2022-09-09T05:55:46;7.15;;;2.60;;
21148;SDS011;10732;51.472;6.466;2022-09-09T05:58:13;9.15;;;2.70;;
21148;SDS011;10732;51.472;6.466;2022-09-09T06:00:40;8.75;;;2.70;;
21148;SDS011;10732;51.472;6.466;2022-09-09T06:03:08;7.25;;;2.38;;
21148;SDS011;10732;51.472;6.466;2022-09-09T06:05:35;7.68;;;2.33;;
21148;SDS011;10732;51.472;6.466;2022-09-09T06:08:01;7.05;;;2.45;;
21148;SDS011;10732;51.472;6.466;2022-09-09T06:10:26;9.27;;;2.42;;
21148;SDS011;10732;51.472;6.466;2022-09-09T06:12:53;11.63;;;3.05;;
21148;SDS011;10732;51.472;6.466;2022-09-09T06:15:18;9.00;;;2.95;;
21148;SDS011;10732;51.472;6.466;2022-09-09T06:17:44;10.27;;;2.80;;
21148;SDS011;10732;51.472;6.466;2022-09-09T06:20:10;10.25;;;2.65;;
21148;SDS011;10732;51.472;6.466;2022-09-09T06:22:35;8.85;;;2.83;;
21148;SDS011;10732;51.472;6.466;2022-09-09T06:25:04;6.53;;;2.20;;
21148;SDS011;10732;51.472;6.466;2022-09-09T06:27:29;6.13;;;2.33;;
21148;SDS011;10732;51.472;6.466;2022-09-09T06:29:55;11.85;;;2.90;;
21148;SDS011;10732;51.472;6.466;2022-09-09T06:32:21;8.68;;;2.50;;
21148;SDS011;10732;51.472;6.466;2022-09-09T06:34:51;8.45;;;3.10;;
21148;SDS011;10732;51.472;6.466;2022-09-09T06:37:17;7.75;;;2.58;;
21148;SDS011;10732;51.472;6.466;2022-09-09T06:39:42;6.15;;;2.20;;
21148;SDS011;10732;51.472;6.466;2022-09-09T06:42:08;8.27;;;2.30;;
21148;SDS011;10732;51.472;6.466;2022-09-09T06:44:34;9.30;;;2.33;;
21148;SDS011;10732;51.472;6.466;2022-09-09T06:46:59;7.00;;;1.90;;
21148;SDS011;10732;51.472;6.466;2022-09-09T06:49:25;7.75;;;2.05;;
21148;SDS011;10732;51.472;6.466;2022-09-09T06:51:51;5.05;;;1.98;;
21148;SDS011;10732;51.472;6.466;2022-09-09T06:54:17;6.10;;;2.10;;
21148;SDS011;10732;51.472;6.466;2022-09-09T06:56:43;7.07;;;2.25;;
21148;SDS011;10732;51.472;6.466;2022-09-09T06:59:10;7.38;;;1.83;;
21148;SDS011;10732;51.472;6.466;2022-09-09T07:01:40;7.13;;;1.90;;
21148;SDS011;10732;51.472;6.466;2022-09-09T07:04:08;7.55;;;1.88;;
21148;SDS011;10732;51.472;6.466;2022-09-09T07:06:40;9.77;;;2.50;;
21148;SDS011;10732;51.472;6.466;2022-09-09T07:09:08;5.28;;;1.70;;
21148;SDS011;10732;51.472;6.466;2022-09-09T07:11:42;5.15;;;1.60;;
21148;SDS011;10732;51.472;6.466;2022-09-09T07:14:09;7.57;;;1.77;;
21148;SDS011;10732;51.472;6.466;2022-09-09T07:16:39;7.03;;;2.00;;
21148;SDS011;10732;51.472;6.466;2022-09-09T07:19:05;5.82;;;1.73;;
21148;SDS011;10732;51.472;6.466;2022-09-09T07:21:31;5.43;;;1.75;;
21148;SDS011;10732;51.472;6.466;2022-09-09T07:23:58;6.43;;;1.70;;
21148;SDS011;10732;51.472;6.466;2022-09-09T07:26:26;7.85;;;1.80;;
21148;SDS011;10732;51.472;6.466;2022-09-09T07:28:53;12.65;;;2.30;;
21148;SDS011;10732;51.472;6.466;2022-09-09T07:31:22;6.68;;;1.88;;
21148;SDS011;10732;51.472;6.466;2022-09-09T07:33:51;7.00;;;2.00;;
21148;SDS011;10732;51.472;6.466;2022-09-09T07:36:17;7.45;;;1.77;;
21148;SDS011;10732;51.472;6.466;2022-09-09T07:38:48;6.00;;;1.80;;
21148;SDS011;10732;51.472;6.466;2022-09-09T07:41:51;5.43;;;1.60;;
21148;SDS011;10732;51.472;6.466;2022-09-09T07:44:13;5.88;;;1.85;;
21148;SDS011;10732;51.472;6.466;2022-09-09T07:46:43;11.30;;;2.17;;
21148;SDS011;10732;51.472;6.466;2022-09-09T07:49:11;11.05;;;2.58;;
21148;SDS011;10732;51.472;6.466;2022-09-09T07:51:38;5.97;;;1.90;;
21148;SDS011;10732;51.472;6.466;2022-09-09T07:54:06;5.57;;;1.48;;
21148;SDS011;10732;51.472;6.466;2022-09-09T07:56:34;4.35;;;1.67;;
21148;SDS011;10732;51.472;6.466;2022-09-09T07:59:01;8.20;;;1.88;;
21148;SDS011;10732;51.472;6.466;2022-09-09T08:01:28;7.35;;;2.22;;
21148;SDS011;10732;51.472;6.466;2022-09-09T08:03:57;6.57;;;1.95;;
21148;SDS011;10732;51.472;6.466;2022-09-09T08:06:27;5.95;;;1.90;;
21148;SDS011;10732;51.472;6.466;2022-09-09T08:08:54;6.78;;;1.73;;
21148;SDS011;10732;51.472;6.466;2022-09-09T08:11:20;7.68;;;1.42;;
21148;SDS011;10732;51.472;6.466;2022-09-09T08:13:48;7.97;;;1.67;;
21148;SDS011;10732;51.472;6.466;2022-09-09T08:16:16;3.38;;;1.40;;
21148;SDS011;10732;51.472;6.466;2022-09-09T08:18:44;6.80;;;1.90;;
21148;SDS011;10732;51.472;6.466;2022-09-09T08:21:13;4.30;;;1.38;;
21148;SDS011;10732;51.472;6.466;2022-09-09T08:23:42;4.13;;;1.60;;
21148;SDS011;10732;51.472;6.466;2022-09-09T08:26:11;6.10;;;1.70;;
21148;SDS011;10732;51.472;6.466;2022-09-09T08:28:59;7.15;;;2.03;;
21148;SDS011;10732;51.472;6.466;2022-09-09T08:33:53;19.70;;;3.20;;
21148;SDS011;10732;51.472;6.466;2022-09-09T08:36:20;6.68;;;1.50;;
21148;SDS011;10732;51.472;6.466;2022-09-09T08:38:52;5.75;;;1.50;;
21148;SDS011;10732;51.472;6.466;2022-09-09T08:41:38;7.80;;;1.60;;
21148;SDS011;10732;51.472;6.466;2022-09-09T08:52:13;9.77;;;1.70;;
21148;SDS011;10732;51.472;6.466;2022-09-09T08:54:44;11.70;;;1.80;;
21148;SDS011;10732;51.472;6.466;2022-09-09T08:57:15;5.88;;;1.80;;
21148;SDS011;10732;51.472;6.466;2022-09-09T08:59:46;6.45;;;1.80;;
21148;SDS011;10732;51.472;6.466;2022-09-09T09:02:21;8.30;;;2.08;;
21148;SDS011;10732;51.472;6.466;2022-09-09T09:07:42;7.93;;;1.63;;
21148;SDS011;10732;51.472;6.466;2022-09-09T09:12:57;4.95;;;1.90;;
21148;SDS011;10732;51.472;6.466;2022-09-09T09:15:23;9.18;;;2.00;;
21148;SDS011;10732;51.472;6.466;2022-09-09T09:17:51;6.95;;;1.95;;
21148;SDS011;10732;51.472;6.466;2022-09-09T09:20:18;4.28;;;1.50;;
21148;SDS011;10732;51.472;6.466;2022-09-09T09:22:55;3.75;;;1.33;;
21148;SDS011;10732;51.472;6.466;2022-09-09T09:25:27;6.05;;;1.30;;
21148;SDS011;10732;51.472;6.466;2022-09-09T09:28:18;10.27;;;2.00;;
21148;SDS011;10732;51.472;6.466;2022-09-09T09:30:54;7.22;;;1.60;;
21148;SDS011;10732;51.472;6.466;2022-09-09T09:36:06;5.07;;;1.70;;
21148;SDS011;10732;51.472;6.466;2022-09-09T09:38:33;8.82;;;1.88;;
21148;SDS011;10732;51.472;6.466;2022-09-09T09:41:00;5.65;;;1.33;;
21148;SDS011;10732;51.472;6.466;2022-09-09T09:43:27;7.47;;;1.50;;
21148;SDS011;10732;51.472;6.466;2022-09-09T09:45:54;3.55;;;1.25;;
21148;SDS011;10732;51.472;6.466;2022-09-09T09:48:22;5.35;;;1.08;;
21148;SDS011;10732;51.472;6.466;2022-09-09T09:50:58;4.50;;;1.45;;
21148;SDS011;10732;51.472;6.466;2022-09-09T09:53:30;3.38;;;1.30;;
21148;SDS011;10732;51.472;6.466;2022-09-09T09:56:16;7.53;;;1.67;;
21148;SDS011;10732;51.472;6.466;2022-09-09T09:58:51;3.85;;;1.42;;
21148;SDS011;10732;51.472;6.466;2022-09-09T10:03:52;3.92;;;1.30;;
21148;SDS011;10732;51.472;6.466;2022-09-09T10:06:35;7.40;;;1.52;;
21148;SDS011;10732;51.472;6.466;2022-09-09T10:09:03;3.50;;;1.42;;
21148;SDS011;10732;51.472;6.466;2022-09-09T10:11:52;5.90;;;1.73;;
21148;SDS011;10732;51.472;6.466;2022-09-09T10:22:32;4.32;;;1.33;;
21148;SDS011;10732;51.472;6.466;2022-09-09T10:36:19;5.60;;;1.27;;
21148;SDS011;10732;51.472;6.466;2022-09-09T10:38:48;5.60;;;1.15;;
21148;SDS011;10732;51.472;6.466;2022-09-09T10:44:12;4.13;;;1.40;;
21148;SDS011;10732;51.472;6.466;2022-09-09T10:46:48;4.78;;;1.10;;
21148;SDS011;10732;51.472;6.466;2022-09-09T10:57:46;3.95;;;1.50;;
21148;SDS011;10732;51.472;6.466;2022-09-09T11:02:56;5.32;;;1.42;;
21148;SDS011;10732;51.472;6.466;2022-09-09T11:05:38;6.85;;;1.75;;
21148;SDS011;10732;51.472;6.466;2022-09-09T11:08:12;3.20;;;1.23;;
21148;SDS011;10732;51.472;6.466;2022-09-09T11:13:23;6.47;;;1.70;;
21148;SDS011;10732;51.472;6.466;2022-09-09T11:15:52;4.28;;;1.40;;
21148;SDS011;10732;51.472;6.466;2022-09-09T11:18:35;6.55;;;1.40;;
21148;SDS011;10732;51.472;6.466;2022-09-09T11:21:12;4.70;;;1.20;;
21148;SDS011;10732;51.472;6.466;2022-09-09T11:24:05;4.50;;;1.17;;
21148;SDS011;10732;51.472;6.466;2022-09-09T11:26:41;4.57;;;1.60;;
21148;SDS011;10732;51.472;6.466;2022-09-09T11:32:28;3.05;;;1.30;;
21148;SDS011;10732;51.472;6.466;2022-09-09T11:40:40;4.72;;;1.48;;
21148;SDS011;10732;51.472;6.466;2022-09-09T11:46:04;3.92;;;1.30;;
21148;SDS011;10732;51.472;6.466;2022-09-09T11:51:00;6.20;;;1.30;;
21148;SDS011;10732;51.472;6.466;2022-09-09T11:53:30;5.82;;;1.40;;
21148;SDS011;10732;51.472;6.466;2022-09-09T11:56:03;5.55;;;1.40;;
21148;SDS011;10732;51.472;6.466;2022-09-09T11:58:39;2.97;;;1.02;;
21148;SDS011;10732;51.472;6.466;2022-09-09T12:06:55;3.58;;;1.10;;
21148;SDS011;10732;51.472;6.466;2022-09-09T12:09:27;6.40;;;1.27;;
21148;SDS011;10732;51.472;6.466;2022-09-09T12:17:26;2.55;;;1.33;;
21148;SDS011;10732;51.472;6.466;2022-09-09T12:28:17;6.63;;;1.60;;
21148;SDS011;10732;51.472;6.466;2022-09-09T12:30:28;5.55;;;1.80;;
21148;SDS011;10732;51.472;6.466;2022-09-09T12:33:01;6.63;;;1.52;;
21148;SDS011;10732;51.472;6.466;2022-09-09T12:35:27;5.57;;;1.23;;
21148;SDS011;10732;51.472;6.466;2022-09-09T12:37:56;4.60;;;1.33;;
21148;SDS011;10732;51.472;6.466;2022-09-09T12:40:31;3.50;;;1.10;;
21148;SDS011;10732;51.472;6.466;2022-09-09T12:43:00;6.00;;;1.63;;
21148;SDS011;10732;51.472;6.466;2022-09-09T12:45:28;5.28;;;1.70;;
21148;SDS011;10732;51.472;6.466;2022-09-09T12:50:34;3.47;;;1.35;;
21148;SDS011;10732;51.472;6.466;2022-09-09T12:53:12;3.70;;;1.35;;
21148;SDS011;10732;51.472;6.466;2022-09-09T12:55:52;3.95;;;1.40;;
21148;SDS011;10732;51.472;6.466;2022-09-09T12:58:21;5.50;;;1.38;;
21148;SDS011;10732;51.472;6.466;2022-09-09T13:00:54;5.80;;;1.58;;
21148;SDS011;10732;51.472;6.466;2022-09-09T13:03:21;4.50;;;1.63;;
21148;SDS011;10732;51.472;6.466;2022-09-09T13:05:48;5.88;;;1.70;;
21148;SDS011;10732;51.472;6.466;2022-09-09T13:08:14;5.03;;;1.40;;
21148;SDS011;10732;51.472;6.466;2022-09-09T13:13:17;5.43;;;1.65;;
21148;SDS011;10732;51.472;6.466;2022-09-09T13:15:53;4.85;;;1.40;;
21148;SDS011;10732;51.472;6.466;2022-09-09T13:18:24;4.40;;;1.30;;
21148;SDS011;10732;51.472;6.466;2022-09-09T13:20:54;4.50;;;1.60;;
21148;SDS011;10732;51.472;6.466;2022-09-09T13:23:22;3.90;;;1.40;;
21148;SDS011;10732;51.472;6.466;2022-09-09T13:26:01;4.13;;;1.50;;
21148;SDS011;10732;51.472;6.466;2022-09-09T13:28:32;4.88;;;1.63;;
21148;SDS011;10732;51.472;6.466;2022-09-09T13:31:00;3.20;;;1.35;;
21148;SDS011;10732;51.472;6.466;2022-09-09T13:33:34;4.13;;;1.50;;
21148;SDS011;10732;51.472;6.466;2022-09-09T13:38:36;5.07;;;1.33;;
21148;SDS011;10732;51.472;6.466;2022-09-09T13:41:04;3.80;;;1.40;;
21148;SDS011;10732;51.472;6.466;2022-09-09T13:43:42;5.00;;;1.55;;
21148;SDS011;10732;51.472;6.466;2022-09-09T13:48:57;3.40;;;1.40;;
21148;SDS011;10732;51.472;6.466;2022-09-09T13:51:34;4.68;;;1.52;;
21148;SDS011;10732;51.472;6.466;2022-09-09T13:54:06;4.00;;;1.60;;
21148;SDS011;10732;51.472;6.466;2022-09-09T13:56:34;3.97;;;1.77;;
21148;SDS011;10732;51.472;6.466;2022-09-09T13:59:02;3.53;;;1.20;;
21148;SDS011;10732;51.472;6.466;2022-09-09T14:01:29;2.90;;;1.30;;
21148;SDS011;10732;51.472;6.466;2022-09-09T14:03:56;3.70;;;1.42;;
21148;SDS011;10732;51.472;6.466;2022-09-09T14:06:21;4.57;;;1.40;;
21148;SDS011;10732;51.472;6.466;2022-09-09T14:08:48;3.67;;;1.02;;
21148;SDS011;10732;51.472;6.466;2022-09-09T14:11:15;2.88;;;1.00;;
21148;SDS011;10732;51.472;6.466;2022-09-09T14:13:41;4.35;;;1.67;;
21148;SDS011;10732;51.472;6.466;2022-09-09T14:16:07;4.05;;;1.55;;
21148;SDS011;10732;51.472;6.466;2022-09-09T14:18:32;4.05;;;1.45;;
21148;SDS011;10732;51.472;6.466;2022-09-09T14:20:59;3.80;;;1.52;;
21148;SDS011;10732;51.472;6.466;2022-09-09T14:23:24;4.40;;;1.38;;
21148;SDS011;10732;51.472;6.466;2022-09-09T14:25:50;3.70;;;1.30;;
21148;SDS011;10732;51.472;6.466;2022-09-09T14:28:17;4.47;;;1.40;;
21148;SDS011;10732;51.472;6.466;2022-09-09T14:30:43;2.33;;;1.40;;
21148;SDS011;10732;51.472;6.466;2022-09-09T14:33:13;3.55;;;1.20;;
21148;SDS011;10732;51.472;6.466;2022-09-09T14:35:40;2.53;;;1.10;;
21148;SDS011;10732;51.472;6.466;2022-09-09T14:38:06;4.13;;;1.60;;
21148;SDS011;10732;51.472;6.466;2022-09-09T14:40:33;2.30;;;1.10;;
21148;SDS011;10732;51.472;6.466;2022-09-09T14:43:00;3.38;;;1.20;;
21148;SDS011;10732;51.472;6.466;2022-09-09T14:45:26;6.55;;;1.45;;
21148;SDS011;10732;51.472;6.466;2022-09-09T14:47:52;2.58;;;1.38;;
21148;SDS011;10732;51.472;6.466;2022-09-09T14:50:18;3.47;;;1.25;;
21148;SDS011;10732;51.472;6.466;2022-09-09T14:52:45;2.40;;;1.30;;
21148;SDS011;10732;51.472;6.466;2022-09-09T14:55:11;2.75;;;1.50;;
21148;SDS011;10732;51.472;6.466;2022-09-09T14:57:37;2.80;;;1.30;;
21148;SDS011;10732;51.472;6.466;2022-09-09T15:00:04;5.22;;;1.27;;
21148;SDS011;10732;51.472;6.466;2022-09-09T15:02:30;3.38;;;1.33;;
21148;SDS011;10732;51.472;6.466;2022-09-09T15:04:56;4.70;;;1.38;;
21148;SDS011;10732;51.472;6.466;2022-09-09T15:07:24;3.50;;;1.40;;
21148;SDS011;10732;51.472;6.466;2022-09-09T15:09:52;1.90;;;1.17;;
21148;SDS011;10732;51.472;6.466;2022-09-09T15:12:17;2.22;;;1.20;;
21148;SDS011;10732;51.472;6.466;2022-09-09T15:14:44;4.10;;;1.35;;
21148;SDS011;10732;51.472;6.466;2022-09-09T15:17:10;5.75;;;1.25;;
21148;SDS011;10732;51.472;6.466;2022-09-09T15:19:36;4.28;;;1.20;;
21148;SDS011;10732;51.472;6.466;2022-09-09T15:22:03;4.32;;;1.48;;
21148;SDS011;10732;51.472;6.466;2022-09-09T15:24:30;2.33;;;1.10;;
21148;SDS011;10732;51.472;6.466;2022-09-09T15:26:56;5.32;;;1.58;;
21148;SDS011;10732;51.472;6.466;2022-09-09T15:29:22;3.47;;;1.10;;
21148;SDS011;10732;51.472;6.466;2022-09-09T15:31:48;1.98;;;1.20;;
21148;SDS011;10732;51.472;6.466;2022-09-09T15:34:13;4.53;;;1.50;;
21148;SDS011;10732;51.472;6.466;2022-09-09T15:36:40;3.15;;;1.20;;
21148;SDS011;10732;51.472;6.466;2022-09-09T15:39:08;2.58;;;1.35;;
21148;SDS011;10732;51.472;6.466;2022-09-09T15:41:37;5.18;;;1.48;;
21148;SDS011;10732;51.472;6.466;2022-09-09T15:44:03;2.60;;;1.40;;
21148;SDS011;10732;51.472;6.466;2022-09-09T15:46:37;4.90;;;1.42;;
21148;SDS011;10732;51.472;6.466;2022-09-09T15:49:08;4.72;;;1.67;;
21148;SDS011;10732;51.472;6.466;2022-09-09T15:51:36;3.75;;;1.55;;
21148;SDS011;10732;51.472;6.466;2022-09-09T15:54:09;4.00;;;1.40;;
21148;SDS011;10732;51.472;6.466;2022-09-09T15:56:36;4.47;;;1.40;;
21148;SDS011;10732;51.472;6.466;2022-09-09T15:59:02;8.55;;;2.00;;
21148;SDS011;10732;51.472;6.466;2022-09-09T16:01:28;4.97;;;1.52;;
21148;SDS011;10732;51.472;6.466;2022-09-09T16:03:55;3.40;;;1.40;;
21148;SDS011;10732;51.472;6.466;2022-09-09T16:06:22;6.47;;;1.63;;
21148;SDS011;10732;51.472;6.466;2022-09-09T16:08:50;2.47;;;1.30;;
21148;SDS011;10732;51.472;6.466;2022-09-09T16:11:24;4.47;;;1.90;;
21148;SDS011;10732;51.472;6.466;2022-09-09T16:13:52;3.85;;;1.40;;
21148;SDS011;10732;51.472;6.466;2022-09-09T16:16:19;5.50;;;1.90;;
21148;SDS011;10732;51.472;6.466;2022-09-09T16:18:51;7.93;;;1.60;;
21148;SDS011;10732;51.472;6.466;2022-09-09T16:21:45;3.47;;;1.60;;
21148;SDS011;10732;51.472;6.466;2022-09-09T16:24:13;4.85;;;1.75;;
21148;SDS011;10732;51.472;6.466;2022-09-09T16:26:41;4.05;;;1.77;;
21148;SDS011;10732;51.472;6.466;2022-09-09T16:29:12;3.15;;;1.70;;
21148;SDS011;10732;51.472;6.466;2022-09-09T16:31:39;3.40;;;1.45;;
21148;SDS011;10732;51.472;6.466;2022-09-09T16:34:05;5.93;;;1.70;;
21148;SDS011;10732;51.472;6.466;2022-09-09T16:36:34;3.47;;;1.55;;
21148;SDS011;10732;51.472;6.466;2022-09-09T16:39:04;3.63;;;1.73;;
21148;SDS011;10732;51.472;6.466;2022-09-09T16:41:31;6.45;;;1.90;;
21148;SDS011;10732;51.472;6.466;2022-09-09T16:43:59;4.85;;;1.60;;
21148;SDS011;10732;51.472;6.466;2022-09-09T16:46:27;2.53;;;1.58;;
21148;SDS011;10732;51.472;6.466;2022-09-09T16:48:53;4.85;;;1.63;;
21148;SDS011;10732;51.472;6.466;2022-09-09T16:53:53;2.35;;;1.35;;
21148;SDS011;10732;51.472;6.466;2022-09-09T16:56:21;2.85;;;1.50;;
21148;SDS011;10732;51.472;6.466;2022-09-09T16:58:50;2.78;;;1.50;;
21148;SDS011;10732;51.472;6.466;2022-09-09T17:01:20;4.80;;;1.42;;
21148;SDS011;10732;51.472;6.466;2022-09-09T17:03:45;3.15;;;1.33;;
21148;SDS011;10732;51.472;6.466;2022-09-09T17:06:11;4.28;;;1.50;;
21148;SDS011;10732;51.472;6.466;2022-09-09T17:08:39;2.40;;;1.40;;
21148;SDS011;10732;51.472;6.466;2022-09-09T17:11:16;3.15;;;1.60;;
21148;SDS011;10732;51.472;6.466;2022-09-09T17:13:43;3.92;;;1.60;;
21148;SDS011;10732;51.472;6.466;2022-09-09T17:16:11;4.75;;;1.70;;
21148;SDS011;10732;51.472;6.466;2022-09-09T17:18:38;5.18;;;1.42;;